METAR v bližini

 

LJLJ - Ljubljana/Brnik, Slovenia
Oddaljenost od postaje: Z 41km
Podatki zajeti: 23/02/2018 13:30
Rahel sneg, Pretežno oblačno
Rahel sneg, Pretežno oblačno
 Veter iz smeri spremenljiv
Veter: spremenljiv 2 km/h
Temperatura: 1°C
Rosišče: -2°C
Vlažnost: 81%
Tlak: 1014 hPa
Stanje: Rahel sneg
Oblačnost: Pretežno oblačno
Vidljivost: 8 km
Podrobnosti o oblakih: Delno oblačno 305 m
Pretežno oblačno 1219 m
2018/02/23 12:30 LJLJ 231230Z VRB01KT 8000 -SN SCT010 BKN040 01/M02 Q1014 R30/590195 NOSIG
LJMB - Maribor, Slovenia
Oddaljenost od postaje: SV 63km
Podatki zajeti: 23/02/2018 13:30
Rahel sneg, Meglica, Oblačno
Rahel sneg, Meglica, Oblačno
 Veter iz smeri S
Veter: S 17 km/h
Temperatura: 0°C
Občutek mraza zaradi vetra: -4°C
Rosišče: -2°C
Vlažnost: 87%
Tlak: 1016 hPa
Stanje: Rahel sneg, Meglica
Oblačnost: Oblačno
Vidljivost: 3 km
Podrobnosti o oblakih: Pretežno oblačno 152 m
Oblačno 305 m
2018/02/23 12:30 LJMB 231230Z 36009KT 3000 -SN BR BKN005 OVC010 M00/M02 Q1016 R99/29//95
 
LJPZ - Portoroz, Slovenia
Oddaljenost od postaje: JZ 130km
Podatki zajeti: 23/02/2018 13:30
Pretežno oblačno
Pretežno oblačno
 Veter iz smeri VSV
Veter: VSV 22 km/h
Temperatura: 8°C
Občutek mraza zaradi vetra: 4°C
Rosišče: -2°C
Vlažnost: 50%
Tlak: 1007 hPa
Oblačnost: Pretežno oblačno
Vidljivost: 10 km
Podrobnosti o oblakih: Delno oblačno 1219 m
Pretežno oblačno 3048 m
2018/02/23 12:30 LJPZ 231230Z 06012KT 020V100 9999 SCT040 BKN100 08/M02 Q1007
LJCE - Cerklje, Slovenia
Oddaljenost od postaje: VJV 49km
Podatki zajeti: 23/02/2018 13:30
Rahel sneg, Meglica, Oblačno
Rahel sneg, Meglica, Oblačno
 Veter iz smeri V
Veter: V 9 km/h
Temperatura: 0°C
Občutek mraza zaradi vetra: -3°C
Rosišče: -1°C
Vlažnost: 93%
Tlak: 1016 hPa
Stanje: Rahel sneg, Meglica
Oblačnost: Oblačno
Vidljivost: 2 km
Podrobnosti o oblakih: Pretežno oblačno 396 m
Oblačno 701 m
2018/02/23 12:30 LJCE 231230Z 09005KT 2000 -SN BR BKN013 OVC023 M00/M01 Q1016 R09/SNOCLO RMK YLO
 
LDZA - Zagreb/Pleso, Croatia
Oddaljenost od postaje: VJV 96km
Podatki zajeti: 23/02/2018 13:30
Rahel sneg, Oblačno
Rahel sneg, Oblačno
 Veter iz smeri SV
Veter: SV 20 km/h
Temperatura: 0°C
Občutek mraza zaradi vetra: -6°C
Rosišče: -1°C
Vlažnost: 93%
Tlak: 1015 hPa
Stanje: Rahel sneg
Oblačnost: Oblačno
Vidljivost: 4 km
Podrobnosti o oblakih: Rahlo oblačno 274 m
Pretežno oblačno 762 m
Oblačno 975 m
2018/02/23 12:30 LDZA 231230Z 04011KT 3500 -SN FEW009 BKN025 OVC032 00/M01 Q1015 R05/29//95 NOSIG
LDRI - Rijeka/Omisalj, Croatia
Oddaljenost od postaje: JJZ 109km
Podatki zajeti: 23/02/2018 13:30
Pretežno oblačno
Pretežno oblačno
 Veter iz smeri SV
Veter: SV 30 km/h, Sunek vetra: 50 km/h
Temperatura: 6°C
Občutek mraza zaradi vetra: 2°C
Rosišče: -3°C
Vlažnost: 53%
Tlak: 1009 hPa
Oblačnost: Pretežno oblačno
Vidljivost: 10 km
Podrobnosti o oblakih: Pretežno oblačno 914 m
2018/02/23 12:30 LDRI 231230Z 04016G27KT 9999 BKN030 06/M03 Q1009
 
LDPL - Pula, Croatia
Oddaljenost od postaje: JJZ 164km
Podatki zajeti: 23/02/2018 13:30
Pretežno oblačno
Pretežno oblačno
 Veter iz smeri VSV
Veter: VSV 43 km/h
Temperatura: 7°C
Občutek mraza zaradi vetra: 2°C
Rosišče: -1°C
Vlažnost: 57%
Tlak: 1006 hPa
Oblačnost: Pretežno oblačno
Vidljivost: 10 km
Podrobnosti o oblakih: Delno oblačno 914 m
Pretežno oblačno 1676 m
2018/02/23 12:30 LDPL 231230Z 07023KT 9999 SCT030 BKN055 07/M01 Q1006 TEMPO 06025G35KT
LOWK - Klagenfurt(Civ/M, Austria
Oddaljenost od postaje: SZ 76km
Podatki zajeti: 23/02/2018 13:20
Pretežno oblačno
Pretežno oblačno
 Veter iz smeri spremenljiv
Veter: spremenljiv 4 km/h
Temperatura: 1°C
Rosišče: -3°C
Vlažnost: 75%
Tlak: 1015 hPa
Oblačnost: Pretežno oblačno
Vidljivost: 10 km
Podrobnosti o oblakih: Rahlo oblačno 274 m
Pretežno oblačno 1372 m
2018/02/23 12:20 LOWK 231220Z VRB02KT 9999 FEW009 BKN045 01/M03 Q1015 R10L/29//95 NOSIG
 
LOWG - Graz (mil/Civ), Austria
Oddaljenost od postaje: SSV 100km
Podatki zajeti: 23/02/2018 13:20
Rahel sneg, Oblačno
Rahel sneg, Oblačno
 Veter iz smeri spremenljiv
Veter: spremenljiv 4 km/h
Temperatura: 0°C
Rosišče: -2°C
Vlažnost: 87%
Tlak: 1016 hPa
Stanje: Rahel sneg
Oblačnost: Oblačno
Vidljivost: 8 km
Podrobnosti o oblakih: Rahlo oblačno 244 m
Delno oblačno 457 m
Oblačno 975 m
2018/02/23 12:20 LOWG 231220Z VRB02KT 8000 -SN FEW008 SCT015 OVC032 00/M02 Q1016 R17/29//95 NOSIG
LOWZ - Zell Am See, Austria
Oddaljenost od postaje: SZ 211km
Podatki zajeti: 31/12/2016 17:00
Ni posodobljen
Jasno
Jasno
 Veter iz smeri spremenljiv
Veter: spremenljiv 4 km/h
Temperatura: -4°C
Rosišče: -7°C
Vlažnost: 80%
Tlak: 1031 hPa
Oblačnost: Jasno
2016/12/31 16:00 LOWZ 311600Z VRB02KT 50KM SKC M04/M07 Q1031
 
LOAN - Wr.neustadt East, Austria
Oddaljenost od postaje: SSV 212km
Podatki zajeti: 23/02/2018 12:20
Ni posodobljen
Sneg, Meglica, Oblačno
Sneg, Meglica, Oblačno
 Veter iz smeri SSV
Veter: SSV 6 km/h
Stanje: Sneg, Meglica
Oblačnost: Oblačno
Vidljivost: 2 km
Podrobnosti o oblakih: Oblačno 152 m
2018/02/23 11:20 LOAN 231120Z 02003KT 1500 SN BR VV005
LIPQ - Ronchi Legionari, Italy
Oddaljenost od postaje: JZ 35km
Podatki zajeti: 23/02/2018 13:20
Delno oblačno
Delno oblačno
 Veter iz smeri V
Veter: V 26 km/h
Temperatura: 8°C
Občutek mraza zaradi vetra: 4°C
Rosišče: -2°C
Vlažnost: 50%
Tlak: 1009 hPa
Oblačnost: Delno oblačno
Vidljivost: 10 km
Podrobnosti o oblakih: Rahlo oblačno 914 m
Delno oblačno 1981 m
2018/02/23 12:20 LIPQ 231220Z 09014KT 9999 FEW030 SCT065 08/M02 Q1009
 
LIVT - Trieste, Italy
Oddaljenost od postaje: ZJZ 109km
Podatki zajeti: 23/02/2018 12:55
Delno oblačno
Delno oblačno
 Veter iz smeri SSV
Veter: SSV 37 km/h, Sunek vetra: 74 km/h
Temperatura: 5°C
Občutek mraza zaradi vetra: -1°C
Rosišče: -4°C
Vlažnost: 53%
Tlak: 1008 hPa
Oblačnost: Delno oblačno
Vidljivost: 10 km
Podrobnosti o oblakih: Delno oblačno 914 m
2018/02/23 11:55 LIVT 231155Z 03020G40KT 9999 SCT030 05/M04 Q1008 RMK BKN BKN070 QUK 4 QUL 2 NE VIS MAR 20 KM VIS MIN 9999
LIVO - Tarvisio, Italy
Oddaljenost od postaje: SSZ 49km
Podatki zajeti: 23/02/2018 12:55
Oblačno
Oblačno
 Veter iz smeri SSV
Veter: SSV 4 km/h
Temperatura: -1°C
Rosišče: -4°C
Vlažnost: 80%
Tlak: 1011 hPa
Oblačnost: Oblačno
Vidljivost: 10 km
Podrobnosti o oblakih: Oblačno 457 m
2018/02/23 11:55 LIVO 231155Z 02002KT 9999 OVC015 M01/M04 Q1011 RMK OVC VIS MIN 9999
 
LIPZ - Venezia/Tessera, Italy
Oddaljenost od postaje: ZJZ 217km
Podatki zajeti: 23/02/2018 13:20
Pretežno oblačno
Pretežno oblačno
 Veter iz smeri SV
Veter: SV 30 km/h
Temperatura: 7°C
Občutek mraza zaradi vetra: 3°C
Rosišče: 0°C
Vlažnost: 61%
Tlak: 1009 hPa
Oblačnost: Pretežno oblačno
Vidljivost: 10 km
Podrobnosti o oblakih: Delno oblačno 1280 m
Pretežno oblačno 1615 m
2018/02/23 12:20 LIPZ 231220Z 05016KT 9999 SCT042 BKN053 07/00 Q1009 NOSIG
LHSM - Balaton, Hungary
Oddaljenost od postaje: VSV 177km
Podatki zajeti: 23/02/2018 13:15
Meglica, Oblačno
Meglica, Oblačno
 Veter iz smeri S
Veter: S 15 km/h
Temperatura: 0°C
Občutek mraza zaradi vetra: -4°C
Rosišče: -1°C
Vlažnost: 93%
Tlak: 1017 hPa
Stanje: Meglica
Oblačnost: Oblačno
Vidljivost: 3 km
Podrobnosti o oblakih: Oblačno 305 m
2018/02/23 12:15 LHSM 231215Z 36008KT 3000 BR OVC010 M00/M01 Q1017 RESN